Time;durP1;ratioP1;P1;durP2;ratioP2;P2;SDS_P1;SDS_P2;PMS_P1;PMS_P2;Temp;Humidity;BMP_temperature;BMP_pressure;BME280_temperature;BME280_humidity;BME280_pressure;Samples;Min_cycle;Max_cycle;Signal;HPM_P1;HPM_P2
2023/08/05 00:00:45;;;;;;;6.45;4.30;;;18.80;99.90;;;;;;5074805;28;20070;-62
2023/08/05 00:03:10;;;;;;;4.53;3.92;;;18.80;99.90;;;;;;5074830;28;20027;-62
2023/08/05 00:05:37;;;;;;;5.13;4.63;;;18.80;99.90;;;;;;5072119;28;20027;-63
2023/08/05 00:08:06;;;;;;;5.95;4.32;;;18.70;99.90;;;;;;5073557;28;20027;-63
2023/08/05 00:10:32;;;;;;;6.30;4.38;;;18.70;99.90;;;;;;5074647;28;20040;-64
2023/08/05 00:12:58;;;;;;;7.75;3.95;;;18.70;99.90;;;;;;5074494;28;20054;-64
2023/08/05 00:15:23;;;;;;;6.80;4.65;;;18.70;99.90;;;;;;5080305;28;20031;-63
2023/08/05 00:17:49;;;;;;;6.90;3.90;;;18.70;99.90;;;;;;5094993;28;20031;-63
2023/08/05 00:20:14;;;;;;;5.50;4.60;;;18.70;99.90;;;;;;5094958;28;20380;-63
2023/08/05 00:22:40;;;;;;;7.18;4.32;;;18.60;99.90;;;;;;5094465;28;20031;-63
2023/08/05 00:25:06;;;;;;;7.75;4.80;;;18.60;99.90;;;;;;5094933;28;20020;-64
2023/08/05 00:27:32;;;;;;;6.03;5.40;;;18.60;99.90;;;;;;5094782;28;20464;-63
2023/08/05 00:29:57;;;;;;;8.65;6.65;;;18.50;99.90;;;;;;5094274;28;20027;-63
2023/08/05 00:32:23;;;;;;;7.15;5.20;;;18.60;99.90;;;;;;5094561;28;20029;-65
2023/08/05 00:34:49;;;;;;;6.57;4.75;;;18.50;99.90;;;;;;5094602;28;20411;-63
2023/08/05 00:37:14;;;;;;;6.75;4.95;;;18.50;99.90;;;;;;5094490;28;20028;-63
2023/08/05 00:39:40;;;;;;;5.93;4.20;;;18.50;99.90;;;;;;5094556;28;20016;-64
2023/08/05 00:42:06;;;;;;;7.57;4.93;;;18.50;99.90;;;;;;5092589;28;20078;-63
2023/08/05 00:44:31;;;;;;;6.32;4.60;;;18.50;99.90;;;;;;5094583;28;20035;-63
2023/08/05 00:46:57;;;;;;;5.03;4.47;;;18.50;99.90;;;;;;5093403;28;20016;-64
2023/08/05 00:49:24;;;;;;;7.10;5.00;;;18.50;99.90;;;;;;5094088;28;20032;-63
2023/08/05 00:51:50;;;;;;;7.53;4.90;;;18.50;99.90;;;;;;5094149;28;20032;-65
2023/08/05 00:54:16;;;;;;;6.80;4.70;;;18.40;99.90;;;;;;5093930;28;20022;-63
2023/08/05 00:56:44;;;;;;;7.82;5.22;;;18.40;99.90;;;;;;5094058;28;20031;-64
2023/08/05 00:59:10;;;;;;;6.45;4.53;;;18.40;99.90;;;;;;5093811;28;20012;-63
2023/08/05 01:01:36;;;;;;;7.13;4.43;;;18.40;99.90;;;;;;5092831;28;20397;-63
2023/08/05 01:04:02;;;;;;;8.25;5.10;;;18.30;99.90;;;;;;5093869;28;20015;-62
2023/08/05 01:06:28;;;;;;;5.45;4.68;;;18.30;99.90;;;;;;5094110;28;20031;-62
2023/08/05 01:08:54;;;;;;;6.82;4.80;;;18.30;99.90;;;;;;5093914;28;20077;-63
2023/08/05 01:11:21;;;;;;;7.22;4.72;;;18.30;99.90;;;;;;5093593;28;20034;-63
2023/08/05 01:13:47;;;;;;;6.43;5.05;;;18.30;99.90;;;;;;5093790;28;20016;-62
2023/08/05 01:16:12;;;;;;;7.63;4.78;;;18.30;99.90;;;;;;5093957;28;20487;-62
2023/08/05 01:18:39;;;;;;;5.53;4.55;;;18.30;99.90;;;;;;5093691;28;20028;-62
2023/08/05 01:21:22;;;;;;;5.05;4.55;;;18.30;99.90;;;;;;5093784;28;20480;-62
2023/08/05 01:24:03;;;;;;;9.27;5.30;;;18.20;99.90;;;;;;5093618;28;20464;-63
2023/08/05 01:26:28;;;;;;;7.38;4.72;;;18.20;99.90;;;;;;5093467;28;20102;-63
2023/08/05 01:28:54;;;;;;;6.60;5.47;;;18.20;99.90;;;;;;5093614;28;20024;-63
2023/08/05 01:31:20;;;;;;;9.05;5.82;;;18.20;99.90;;;;;;5093480;28;20484;-63
2023/08/05 01:33:47;;;;;;;8.80;6.10;;;18.20;99.90;;;;;;5093514;28;20125;-62
2023/08/05 01:36:22;;;;;;;6.72;6.13;;;18.20;99.90;;;;;;5093501;28;20017;-64
2023/08/05 01:38:48;;;;;;;7.30;5.95;;;18.10;99.90;;;;;;5093327;28;20024;-62
2023/08/05 01:41:15;;;;;;;9.63;6.63;;;18.10;99.90;;;;;;5069428;28;20477;-63
2023/08/05 01:43:41;;;;;;;6.97;5.95;;;18.10;99.90;;;;;;5072713;28;20430;-62
2023/08/05 01:46:06;;;;;;;9.65;6.90;;;18.10;99.90;;;;;;5070786;28;20028;-63
2023/08/05 01:48:32;;;;;;;7.68;6.70;;;18.10;99.90;;;;;;5071773;28;20033;-63
2023/08/05 01:50:57;;;;;;;9.25;6.68;;;18.10;99.90;;;;;;5073001;28;20458;-63
2023/08/05 01:53:23;;;;;;;8.07;7.28;;;18.10;99.90;;;;;;5072948;28;20066;-63
2023/08/05 01:55:49;;;;;;;7.75;6.30;;;18.10;99.90;;;;;;5072778;28;20107;-63
2023/08/05 01:58:14;;;;;;;8.95;6.95;;;18.10;99.90;;;;;;5072760;28;20028;-63
2023/08/05 02:00:40;;;;;;;9.18;7.10;;;18.00;99.90;;;;;;5072968;28;20062;-62
2023/08/05 02:03:05;;;;;;;9.05;7.10;;;18.10;99.90;;;;;;5072944;28;20028;-62
2023/08/05 02:05:31;;;;;;;8.88;6.80;;;18.00;99.90;;;;;;5072987;28;20021;-63
2023/08/05 02:07:57;;;;;;;9.43;7.07;;;18.00;99.90;;;;;;5073157;28;20411;-63
2023/08/05 02:10:22;;;;;;;11.90;8.18;;;18.00;99.90;;;;;;5072526;28;20529;-62
2023/08/05 02:12:48;;;;;;;8.23;6.78;;;18.00;99.90;;;;;;5073099;28;20366;-63
2023/08/05 02:15:13;;;;;;;8.25;7.47;;;17.90;99.90;;;;;;5071467;28;20020;-68
2023/08/05 02:17:39;;;;;;;9.25;8.13;;;17.90;99.90;;;;;;5072709;28;20032;-64
2023/08/05 02:20:05;;;;;;;8.45;7.53;;;18.00;99.90;;;;;;5072851;28;20396;-63
2023/08/05 02:22:31;;;;;;;8.32;7.45;;;17.90;99.90;;;;;;5072866;28;20054;-64
2023/08/05 02:24:56;;;;;;;8.52;7.72;;;17.90;99.90;;;;;;5072476;28;20021;-63
2023/08/05 02:27:22;;;;;;;9.05;7.07;;;17.90;99.90;;;;;;5072715;28;20023;-63
2023/08/05 02:29:48;;;;;;;10.27;7.85;;;17.90;99.90;;;;;;5072630;28;20032;-62
2023/08/05 02:32:13;;;;;;;8.38;7.53;;;17.90;99.90;;;;;;5072502;28;20032;-63
2023/08/05 02:34:39;;;;;;;8.88;7.30;;;17.90;99.90;;;;;;5072661;28;20423;-62
2023/08/05 02:37:04;;;;;;;8.93;8.02;;;17.90;99.90;;;;;;5072660;28;20033;-63
2023/08/05 02:39:30;;;;;;;8.38;7.07;;;17.90;99.90;;;;;;5072387;28;20021;-62
2023/08/05 02:41:55;;;;;;;8.52;7.72;;;17.80;99.90;;;;;;5072538;28;20059;-62
2023/08/05 02:44:21;;;;;;;8.65;6.40;;;17.80;99.90;;;;;;5072568;28;20028;-63
2023/08/05 02:46:47;;;;;;;8.48;7.18;;;17.80;99.90;;;;;;5071027;28;20024;-62
2023/08/05 02:49:12;;;;;;;8.40;7.60;;;17.80;99.90;;;;;;5072492;28;20033;-64
2023/08/05 02:51:39;;;;;;;9.30;7.35;;;17.80;99.90;;;;;;5072449;28;20459;-64
2023/08/05 02:54:04;;;;;;;7.82;7.00;;;17.80;99.90;;;;;;5072200;28;20032;-63
2023/08/05 02:56:33;;;;;;;8.02;7.22;;;17.80;99.90;;;;;;5072446;28;20029;-63
2023/08/05 02:58:58;;;;;;;7.75;6.95;;;17.70;99.90;;;;;;5072511;28;20111;-63
2023/08/05 03:01:24;;;;;;;7.35;6.57;;;17.80;99.90;;;;;;5072270;28;20063;-63
2023/08/05 03:03:50;;;;;;;10.77;7.95;;;17.70;99.90;;;;;;5072566;28;20025;-63
2023/08/05 03:06:15;;;;;;;10.32;8.23;;;17.70;99.90;;;;;;5072315;28;20028;-63
2023/08/05 03:08:41;;;;;;;10.43;7.90;;;17.70;99.90;;;;;;5070919;28;20035;-65
2023/08/05 03:11:06;;;;;;;11.90;7.63;;;17.70;99.90;;;;;;5074080;28;20041;-63
2023/08/05 03:13:32;;;;;;;9.02;7.28;;;17.70;99.90;;;;;;5075992;28;20055;-64
2023/08/05 03:15:57;;;;;;;8.65;7.45;;;17.70;99.90;;;;;;5075802;28;20052;-63
2023/08/05 03:18:23;;;;;;;10.07;7.55;;;17.70;99.90;;;;;;5076038;28;20107;-67
2023/08/05 03:20:49;;;;;;;7.60;6.90;;;17.60;99.90;;;;;;5075870;28;20060;-62
2023/08/05 03:23:14;;;;;;;7.57;6.78;;;17.60;99.90;;;;;;5075428;28;20028;-65
2023/08/05 03:25:40;;;;;;;9.65;7.50;;;17.60;99.90;;;;;;5074344;28;20077;-63
2023/08/05 03:28:05;;;;;;;10.02;7.18;;;17.60;99.90;;;;;;5075836;28;20017;-63
2023/08/05 03:30:31;;;;;;;9.18;6.75;;;17.60;99.90;;;;;;5075441;28;20028;-64
2023/08/05 03:32:56;;;;;;;9.90;6.82;;;17.60;99.90;;;;;;5075564;28;20461;-64
2023/08/05 03:35:22;;;;;;;9.77;6.38;;;17.60;99.90;;;;;;5075568;28;20021;-65
2023/08/05 03:37:48;;;;;;;7.45;6.70;;;17.60;99.90;;;;;;5075163;28;20067;-64
2023/08/05 03:40:13;;;;;;;8.38;5.90;;;17.60;99.90;;;;;;5075359;28;20024;-63
2023/08/05 03:42:40;;;;;;;9.20;7.35;;;17.60;99.90;;;;;;5075241;28;20024;-63
2023/08/05 03:45:06;;;;;;;14.73;7.00;;;17.60;99.90;;;;;;5075268;28;20028;-63
2023/08/05 03:47:33;;;;;;;8.82;6.60;;;17.50;99.90;;;;;;5075077;28;20103;-67
2023/08/05 03:49:58;;;;;;;9.05;6.50;;;17.50;99.90;;;;;;5075372;28;20401;-62
2023/08/05 03:52:26;;;;;;;8.98;5.57;;;17.60;99.90;;;;;;5074741;28;20458;-63
2023/08/05 03:54:52;;;;;;;7.55;5.90;;;17.50;99.90;;;;;;5075324;28;20469;-65
2023/08/05 03:57:17;;;;;;;7.53;5.97;;;17.50;99.90;;;;;;5075092;28;20104;-65
2023/08/05 03:59:43;;;;;;;8.18;5.88;;;17.50;99.90;;;;;;5075106;28;20055;-63
2023/08/05 04:02:10;;;;;;;7.10;5.82;;;17.50;99.90;;;;;;5074890;28;20457;-64
2023/08/05 04:04:35;;;;;;;8.90;5.45;;;17.50;99.90;;;;;;5075063;28;20037;-64
2023/08/05 04:07:01;;;;;;;7.63;5.32;;;17.50;99.90;;;;;;5074756;28;20032;-63
2023/08/05 04:09:27;;;;;;;8.48;5.78;;;17.50;99.90;;;;;;5074829;28;20496;-64
2023/08/05 04:11:53;;;;;;;8.68;6.20;;;17.50;99.90;;;;;;5074630;28;20036;-63
2023/08/05 04:14:20;;;;;;;7.63;5.88;;;17.50;99.90;;;;;;5074717;28;20411;-63
2023/08/05 04:16:49;;;;;;;12.20;5.93;;;17.50;99.90;;;;;;5074852;28;20539;-66
2023/08/05 04:19:15;;;;;;;6.47;5.25;;;17.50;99.90;;;;;;5074717;28;20119;-64
2023/08/05 04:21:46;;;;;;;6.75;5.60;;;17.40;99.90;;;;;;5074276;28;20082;-64
2023/08/05 04:24:13;;;;;;;7.32;5.13;;;17.40;99.90;;;;;;5074674;28;20455;-64
2023/08/05 04:26:40;;;;;;;6.72;5.63;;;17.40;99.90;;;;;;5074588;28;20024;-64
2023/08/05 04:29:06;;;;;;;7.00;6.15;;;17.40;99.90;;;;;;5074477;28;20480;-63
2023/08/05 04:31:32;;;;;;;9.10;5.78;;;17.40;99.90;;;;;;5074283;28;20548;-63
2023/08/05 04:33:57;;;;;;;6.93;6.10;;;17.40;99.90;;;;;;5074312;28;20100;-63
2023/08/05 04:36:23;;;;;;;7.65;4.85;;;17.40;99.90;;;;;;5074067;28;20024;-63
2023/08/05 04:38:49;;;;;;;7.80;5.90;;;17.40;99.90;;;;;;5074194;28;20021;-62
2023/08/05 04:41:14;;;;;;;9.23;5.75;;;17.40;99.90;;;;;;5074044;28;20039;-63
2023/08/05 04:43:40;;;;;;;10.18;5.22;;;17.40;99.90;;;;;;5074031;28;20024;-63
2023/08/05 04:46:05;;;;;;;8.95;5.65;;;17.40;99.90;;;;;;5074160;28;20077;-63
2023/08/05 04:48:31;;;;;;;9.75;5.80;;;17.40;99.90;;;;;;5073799;28;20397;-65
2023/08/05 04:50:56;;;;;;;8.23;5.55;;;17.40;99.90;;;;;;5073856;28;20111;-63
2023/08/05 04:53:22;;;;;;;7.22;5.30;;;17.40;99.90;;;;;;5073944;28;20020;-64
2023/08/05 04:55:48;;;;;;;8.00;5.10;;;17.40;99.90;;;;;;5074102;28;20031;-63
2023/08/05 04:58:13;;;;;;;8.35;5.18;;;17.40;99.90;;;;;;5073802;28;20056;-63
2023/08/05 05:00:39;;;;;;;9.35;4.80;;;17.40;99.90;;;;;;5073136;28;20029;-63
2023/08/05 05:03:06;;;;;;;5.60;5.10;;;17.40;99.90;;;;;;5073468;28;20047;-64
2023/08/05 05:05:33;;;;;;;9.05;4.60;;;17.40;99.90;;;;;;5073501;28;20024;-64
2023/08/05 05:07:59;;;;;;;11.77;4.32;;;17.30;99.90;;;;;;5073492;28;20094;-63
2023/08/05 05:10:25;;;;;;;7.53;4.50;;;17.30;99.90;;;;;;5073530;28;20386;-64
2023/08/05 05:12:51;;;;;;;9.38;4.53;;;17.40;99.90;;;;;;5073726;28;20078;-63
2023/08/05 05:15:17;;;;;;;6.38;4.90;;;17.30;99.90;;;;;;5073598;28;20031;-63
2023/08/05 05:17:43;;;;;;;5.68;4.22;;;17.40;99.90;;;;;;5073576;28;20037;-63
2023/08/05 05:20:09;;;;;;;6.28;5.35;;;17.40;99.90;;;;;;5072210;28;20362;-64
2023/08/05 05:22:35;;;;;;;5.63;4.82;;;17.30;99.90;;;;;;5073555;28;20028;-68
2023/08/05 05:25:01;;;;;;;5.85;4.00;;;17.30;99.90;;;;;;5073494;28;20025;-64
2023/08/05 05:27:26;;;;;;;6.30;4.10;;;17.40;99.90;;;;;;5073521;28;20043;-63
2023/08/05 05:29:52;;;;;;;6.90;4.80;;;17.40;99.90;;;;;;5073222;28;20070;-64
2023/08/05 05:32:18;;;;;;;7.82;4.40;;;17.40;99.90;;;;;;5073014;28;20392;-63
2023/08/05 05:34:43;;;;;;;6.97;4.88;;;17.40;99.90;;;;;;5072921;28;20096;-65
2023/08/05 05:37:09;;;;;;;6.35;4.40;;;17.40;99.90;;;;;;5073259;28;20473;-63
2023/08/05 05:39:34;;;;;;;9.15;5.70;;;17.40;99.90;;;;;;5073119;28;20025;-64
2023/08/05 05:42:00;;;;;;;7.70;4.70;;;17.50;99.90;;;;;;5073332;28;20056;-64
2023/08/05 05:44:29;;;;;;;8.27;4.78;;;17.70;99.90;;;;;;5072965;28;20285;-67
2023/08/05 05:46:55;;;;;;;8.93;4.50;;;17.80;99.90;;;;;;5073133;28;20024;-63
2023/08/05 05:49:21;;;;;;;7.03;5.00;;;17.80;99.90;;;;;;5072967;28;20044;-64
2023/08/05 05:51:47;;;;;;;6.40;4.60;;;17.80;99.90;;;;;;5070164;28;20024;-63
2023/08/05 05:54:13;;;;;;;7.40;4.65;;;17.90;99.90;;;;;;5086156;28;20035;-62
2023/08/05 05:56:39;;;;;;;5.18;4.10;;;17.90;99.90;;;;;;5093560;28;20016;-62
2023/08/05 05:59:05;;;;;;;7.03;3.50;;;17.90;99.90;;;;;;5073695;28;20466;-62
2023/08/05 06:01:30;;;;;;;10.25;4.80;;;17.90;99.90;;;;;;5070729;28;20039;-62
2023/08/05 06:03:56;;;;;;;7.88;5.25;;;17.80;99.90;;;;;;5072251;28;20028;-64
2023/08/05 06:06:24;;;;;;;8.57;4.78;;;17.80;99.90;;;;;;5068999;28;20032;-63
2023/08/05 06:08:50;;;;;;;7.03;4.78;;;17.90;99.90;;;;;;5070620;28;20029;-64
2023/08/05 06:11:16;;;;;;;8.80;5.65;;;17.90;99.90;;;;;;5074089;28;20029;-63
2023/08/05 06:13:42;;;;;;;11.50;3.72;;;17.90;99.90;;;;;;5071902;28;20032;-64
2023/08/05 06:16:07;;;;;;;5.75;3.67;;;17.90;99.90;;;;;;5060542;28;20378;-64
2023/08/05 06:18:33;;;;;;;7.00;5.18;;;17.90;99.90;;;;;;5063524;28;20390;-65
2023/08/05 06:20:58;;;;;;;7.05;2.72;;;17.90;99.90;;;;;;5052282;28;20374;-64
2023/08/05 06:23:24;;;;;;;4.70;2.47;;;18.00;99.90;;;;;;5061598;28;20028;-64
2023/08/05 06:25:49;;;;;;;6.63;2.47;;;18.00;99.90;;;;;;5065281;28;20170;-67
2023/08/05 06:28:15;;;;;;;5.47;3.00;;;18.00;99.90;;;;;;5068992;28;20047;-64
2023/08/05 06:30:44;;;;;;;4.72;2.63;;;18.00;99.90;;;;;;5065734;28;20510;-64
2023/08/05 06:33:10;;;;;;;6.53;3.13;;;18.10;99.90;;;;;;5052244;28;20021;-64
2023/08/05 06:35:36;;;;;;;6.53;4.00;;;18.10;99.90;;;;;;5063914;28;20025;-65
2023/08/05 06:38:02;;;;;;;6.75;3.75;;;18.10;99.90;;;;;;5055786;28;20477;-65
2023/08/05 06:40:27;;;;;;;8.13;6.80;;;18.10;99.90;;;;;;5056885;28;20414;-64
2023/08/05 06:42:53;;;;;;;5.22;3.50;;;18.10;99.90;;;;;;5060886;28;20021;-64
2023/08/05 06:45:18;;;;;;;6.90;5.60;;;18.10;99.90;;;;;;5055445;28;20260;-65
2023/08/05 06:47:44;;;;;;;7.50;5.80;;;18.10;99.90;;;;;;5061637;28;20033;-65
2023/08/05 06:50:10;;;;;;;5.25;2.83;;;18.10;99.90;;;;;;5072830;28;20059;-65
2023/08/05 06:52:36;;;;;;;5.40;3.53;;;18.10;99.90;;;;;;5072893;28;20480;-65
2023/08/05 06:55:03;;;;;;;4.95;3.03;;;18.10;99.90;;;;;;5070782;28;20067;-67
2023/08/05 06:57:30;;;;;;;6.95;4.18;;;18.20;99.90;;;;;;5068723;28;20476;-64
2023/08/05 06:59:57;;;;;;;9.27;4.57;;;18.20;99.90;;;;;;5068335;28;20400;-66
2023/08/05 07:02:23;;;;;;;10.77;6.22;;;18.20;99.90;;;;;;5061789;28;20019;-65
2023/08/05 07:04:48;;;;;;;7.63;6.15;;;18.20;99.90;;;;;;5067041;28;20120;-65
2023/08/05 07:07:14;;;;;;;7.53;4.32;;;18.20;99.90;;;;;;5070066;28;20020;-65
2023/08/05 07:09:39;;;;;;;9.63;7.43;;;18.30;99.90;;;;;;5066290;28;20377;-65
2023/08/05 07:12:05;;;;;;;12.25;5.03;;;18.30;99.90;;;;;;5055518;28;20485;-66
2023/08/05 07:14:33;;;;;;;8.40;3.72;;;18.30;99.90;;;;;;5054872;28;20458;-64
2023/08/05 07:16:59;;;;;;;6.18;3.65;;;18.30;99.90;;;;;;5055001;28;20568;-65
2023/08/05 07:19:24;;;;;;;5.40;3.30;;;18.30;99.90;;;;;;5063208;28;20032;-64
2023/08/05 07:21:50;;;;;;;6.78;3.42;;;18.40;99.90;;;;;;5067445;28;20086;-66
2023/08/05 07:24:18;;;;;;;5.85;3.45;;;18.40;99.90;;;;;;5055371;28;20040;-64
2023/08/05 07:26:44;;;;;;;9.10;7.75;;;18.40;99.90;;;;;;5065354;28;20496;-65
2023/08/05 07:29:10;;;;;;;6.40;3.60;;;18.40;99.90;;;;;;5067567;28;20033;-64
2023/08/05 07:31:36;;;;;;;6.32;4.03;;;18.40;99.90;;;;;;5071095;28;20036;-64
2023/08/05 07:34:04;;;;;;;13.20;6.70;;;18.40;99.90;;;;;;5070425;28;20050;-64
2023/08/05 07:36:30;;;;;;;9.23;4.90;;;18.50;99.90;;;;;;5068970;28;20024;-64
2023/08/05 07:38:56;;;;;;;8.18;4.55;;;18.50;99.90;;;;;;5078369;28;20377;-63
2023/08/05 07:41:25;;;;;;;7.70;4.45;;;18.50;99.90;;;;;;5070703;28;20028;-66
2023/08/05 07:43:51;;;;;;;7.03;4.95;;;18.60;99.90;;;;;;5074597;28;20048;-66
2023/08/05 07:46:19;;;;;;;8.25;4.03;;;18.60;99.90;;;;;;5074778;28;20419;-65
2023/08/05 07:48:47;;;;;;;9.07;4.20;;;18.60;99.90;;;;;;5075044;28;20035;-65
2023/08/05 07:51:12;;;;;;;6.55;5.15;;;18.60;99.90;;;;;;5077554;28;20455;-63
2023/08/05 07:53:39;;;;;;;9.57;6.90;;;18.60;99.90;;;;;;5078854;28;20469;-62
2023/08/05 07:56:13;;;;;;;6.30;4.80;;;18.60;99.90;;;;;;5073050;28;20028;-64
2023/08/05 07:58:42;;;;;;;7.25;5.28;;;18.70;99.90;;;;;;5073198;28;20082;-63
2023/08/05 08:01:08;;;;;;;9.10;5.57;;;18.70;99.90;;;;;;5074723;28;20030;-62
2023/08/05 08:03:34;;;;;;;7.57;5.35;;;18.70;99.90;;;;;;5073662;28;20020;-63
2023/08/05 08:06:00;;;;;;;11.65;6.07;;;18.70;99.90;;;;;;5065471;28;20081;-64
2023/08/05 08:08:26;;;;;;;12.25;6.72;;;18.70;99.90;;;;;;5071888;28;20013;-62
2023/08/05 08:10:51;;;;;;;11.20;6.60;;;18.80;99.90;;;;;;5074686;28;20500;-63
2023/08/05 08:13:17;;;;;;;7.03;5.60;;;18.80;99.90;;;;;;5070866;28;20064;-63
2023/08/05 08:15:43;;;;;;;10.10;5.90;;;18.80;99.90;;;;;;5072892;28;20035;-62
2023/08/05 08:18:09;;;;;;;10.02;6.60;;;18.80;99.90;;;;;;5073912;28;20025;-64
2023/08/05 08:20:34;;;;;;;10.10;5.65;;;18.80;99.90;;;;;;5074669;28;20027;-62
2023/08/05 08:23:00;;;;;;;11.50;5.50;;;18.80;99.90;;;;;;5079499;28;20150;-63
2023/08/05 08:25:25;;;;;;;9.23;3.70;;;18.80;99.90;;;;;;5073242;28;20036;-63
2023/08/05 08:27:51;;;;;;;8.55;4.35;;;18.90;99.90;;;;;;5061850;28;20028;-63
2023/08/05 08:30:17;;;;;;;7.90;4.32;;;18.90;99.90;;;;;;5060882;28;20029;-63
2023/08/05 08:32:42;;;;;;;11.38;4.38;;;18.90;99.90;;;;;;5065945;28;20025;-62
2023/08/05 08:35:08;;;;;;;6.20;3.50;;;18.90;99.90;;;;;;5068887;28;20028;-62
2023/08/05 08:37:34;;;;;;;7.82;3.20;;;19.00;99.90;;;;;;5080890;28;20020;-63
2023/08/05 08:40:00;;;;;;;5.97;2.83;;;19.00;99.90;;;;;;5073397;28;20476;-63
2023/08/05 08:42:26;;;;;;;8.60;2.85;;;19.00;99.90;;;;;;5071599;28;20481;-63
2023/08/05 08:44:56;;;;;;;7.90;2.95;;;19.00;99.90;;;;;;5067112;28;20033;-62
2023/08/05 08:47:23;;;;;;;10.13;2.78;;;19.10;99.90;;;;;;5073681;28;20055;-62
2023/08/05 08:49:52;;;;;;;6.85;2.78;;;19.10;99.90;;;;;;5072776;28;20082;-66
2023/08/05 08:52:18;;;;;;;5.72;2.10;;;19.10;99.90;;;;;;5072228;28;20028;-65
2023/08/05 08:54:44;;;;;;;6.65;2.15;;;19.10;99.90;;;;;;5072457;28;20020;-64
2023/08/05 08:57:13;;;;;;;7.63;2.78;;;19.10;99.90;;;;;;5072616;28;20144;-65
2023/08/05 08:59:39;;;;;;;7.18;2.40;;;19.10;99.90;;;;;;5072814;28;20023;-64
2023/08/05 09:02:11;;;;;;;5.07;2.20;;;19.20;99.90;;;;;;5072391;28;20385;-64
2023/08/05 09:04:40;;;;;;;4.05;1.85;;;19.20;99.90;;;;;;5075157;28;20068;-65
2023/08/05 09:07:06;;;;;;;5.85;2.63;;;19.20;99.90;;;;;;5065939;28;20068;-66
2023/08/05 09:09:32;;;;;;;6.22;2.55;;;19.30;99.90;;;;;;5066661;28;20437;-65
2023/08/05 09:11:58;;;;;;;6.28;2.28;;;19.30;99.90;;;;;;5063760;28;20393;-66
2023/08/05 09:14:24;;;;;;;5.30;2.20;;;19.30;99.90;;;;;;5060966;28;20021;-66
2023/08/05 09:16:59;;;;;;;5.75;2.53;;;19.30;99.90;;;;;;5062999;28;20016;-66
2023/08/05 09:19:27;;;;;;;5.32;2.17;;;19.40;99.90;;;;;;5067435;28;20036;-69
2023/08/05 09:21:59;;;;;;;5.05;2.13;;;19.40;99.90;;;;;;5066811;28;20472;-67
2023/08/05 09:24:25;;;;;;;;;;;19.40;99.90;;;;;;5069741;28;20016;-67
2023/08/05 09:26:58;;;;;;;3.95;2.53;;;19.40;99.90;;;;;;5067617;28;20285;-65
2023/08/05 09:29:28;;;;;;;4.07;2.05;;;19.40;99.90;;;;;;5065846;28;21380;-66
2023/08/05 09:31:55;;;;;;;3.55;1.90;;;19.40;99.90;;;;;;5065486;28;20025;-64
2023/08/05 09:34:21;;;;;;;5.65;2.13;;;19.40;99.90;;;;;;5054466;28;20031;-64
2023/08/05 09:36:47;;;;;;;8.07;2.30;;;19.50;99.90;;;;;;5068557;28;20161;-65
2023/08/05 09:39:16;;;;;;;6.25;2.53;;;19.50;99.90;;;;;;5068286;28;20104;-64
2023/08/05 09:41:51;;;;;;;12.80;2.97;;;19.50;99.90;;;;;;5065999;28;20481;-65
2023/08/05 09:44:17;;;;;;;8.98;3.28;;;19.50;99.90;;;;;;5060111;28;20028;-65
2023/08/05 09:46:45;;;;;;;6.70;2.97;;;19.50;99.90;;;;;;5073367;28;20036;-64
2023/08/05 09:49:14;;;;;;;6.80;2.65;;;19.50;99.90;;;;;;5062100;28;20512;-65
2023/08/05 09:51:46;;;;;;;5.85;3.45;;;19.60;99.90;;;;;;5069357;28;20028;-64
2023/08/05 09:54:15;;;;;;;6.90;2.30;;;19.60;99.90;;;;;;5066886;28;20036;-64
2023/08/05 09:56:40;;;;;;;7.25;3.10;;;19.60;99.90;;;;;;5061291;28;20378;-64
2023/08/05 09:59:08;;;;;;;7.85;2.97;;;19.60;99.90;;;;;;5051806;28;20039;-64
2023/08/05 10:01:36;;;;;;;6.45;2.47;;;19.60;99.90;;;;;;5066407;28;20393;-65
2023/08/05 10:04:02;;;;;;;6.10;2.58;;;19.60;99.90;;;;;;5070569;28;20025;-64
2023/08/05 10:06:29;;;;;;;6.15;2.17;;;19.70;99.90;;;;;;5065536;28;20480;-64
2023/08/05 10:08:56;;;;;;;6.82;2.20;;;19.70;99.80;;;;;;5070459;28;20024;-64
2023/08/05 10:11:23;;;;;;;5.97;2.60;;;19.70;99.70;;;;;;5068113;28;20684;-64
2023/08/05 10:13:53;;;;;;;4.78;2.33;;;19.70;99.50;;;;;;5070226;28;20470;-65
2023/08/05 10:16:20;;;;;;;4.50;2.53;;;19.70;99.50;;;;;;5068441;28;20036;-64
2023/08/05 10:18:48;;;;;;;4.20;2.30;;;19.70;99.50;;;;;;5064717;28;20020;-66
2023/08/05 10:21:42;;;;;;;4.30;2.15;;;19.70;99.40;;;;;;5072508;28;20036;-65
2023/08/05 10:24:08;;;;;;;6.00;2.72;;;19.70;99.40;;;;;;5063780;28;20032;-64
2023/08/05 10:26:46;;;;;;;4.45;2.85;;;19.70;99.50;;;;;;5088750;28;20020;-64
2023/08/05 10:29:30;;;;;;;7.05;2.65;;;19.70;99.40;;;;;;5071405;28;20024;-64
2023/08/05 10:32:14;;;;;;;4.18;2.40;;;19.70;99.20;;;;;;5074492;28;20060;-64
2023/08/05 10:34:40;;;;;;;9.07;2.65;;;19.70;99.20;;;;;;5069330;28;20060;-66
2023/08/05 10:37:05;;;;;;;6.30;2.50;;;19.70;99.20;;;;;;5080557;28;20067;-65
2023/08/05 10:39:39;;;;;;;6.95;3.13;;;19.70;99.20;;;;;;5091993;28;20469;-65
2023/08/05 10:42:35;;;;;;;9.38;2.80;;;19.70;99.20;;;;;;5077818;28;20446;-67
2023/08/05 10:45:03;;;;;;;4.68;2.63;;;19.80;98.90;;;;;;5063765;28;20086;-67
2023/08/05 10:47:29;;;;;;;6.30;3.10;;;19.80;98.60;;;;;;5075975;28;20024;-65
2023/08/05 10:49:56;;;;;;;6.13;3.13;;;19.70;98.50;;;;;;5072882;28;20546;-65
2023/08/05 10:52:22;;;;;;;6.88;3.10;;;19.70;98.20;;;;;;5065682;28;20036;-66
2023/08/05 10:54:49;;;;;;;3.63;2.47;;;19.80;98.20;;;;;;5075849;28;20468;-68
2023/08/05 10:57:33;;;;;;;4.82;2.90;;;19.80;98.20;;;;;;5077375;28;20031;-65
2023/08/05 10:59:59;;;;;;;5.63;3.60;;;19.80;98.30;;;;;;5095838;28;20028;-66
2023/08/05 11:02:25;;;;;;;7.78;3.67;;;19.80;98.40;;;;;;5081741;28;20078;-65
2023/08/05 11:04:51;;;;;;;6.47;3.88;;;19.80;98.30;;;;;;5073489;28;20032;-67
2023/08/05 11:07:17;;;;;;;6.20;4.22;;;19.80;98.40;;;;;;5073868;28;20036;-65
2023/08/05 11:09:45;;;;;;;6.93;4.53;;;19.80;98.70;;;;;;5074151;28;20031;-65
2023/08/05 11:12:11;;;;;;;9.38;4.20;;;19.80;99.10;;;;;;5073732;28;20048;-65
2023/08/05 11:14:37;;;;;;;6.60;4.20;;;19.70;99.00;;;;;;5074001;28;20020;-66
2023/08/05 11:17:05;;;;;;;5.55;4.22;;;19.70;99.30;;;;;;5074746;28;20092;-66
2023/08/05 11:19:52;;;;;;;9.48;4.03;;;19.80;99.60;;;;;;5074127;28;20033;-64
2023/08/05 11:22:27;;;;;;;10.15;4.47;;;19.80;99.60;;;;;;5060096;28;20606;-65
2023/08/05 11:24:58;;;;;;;7.10;4.22;;;19.80;99.60;;;;;;5066826;28;20053;-65
2023/08/05 11:27:36;;;;;;;5.70;4.15;;;19.80;99.60;;;;;;5071864;28;20441;-65
2023/08/05 11:30:15;;;;;;;7.82;3.80;;;19.80;99.50;;;;;;5073100;28;20035;-65
2023/08/05 11:32:51;;;;;;;6.20;3.70;;;19.80;99.50;;;;;;5073292;28;20037;-65
2023/08/05 11:35:17;;;;;;;6.97;3.60;;;19.80;99.50;;;;;;5070358;28;20389;-64
2023/08/05 11:37:43;;;;;;;7.50;4.10;;;19.80;99.50;;;;;;5069875;28;20154;-66
2023/08/05 11:40:09;;;;;;;9.70;4.53;;;19.80;99.60;;;;;;5086497;28;20103;-65
2023/08/05 11:42:36;;;;;;;9.65;3.67;;;19.80;99.50;;;;;;5069550;28;20406;-64
2023/08/05 11:45:03;;;;;;;8.32;4.40;;;19.80;99.50;;;;;;5071082;28;20103;-64
2023/08/05 11:47:30;;;;;;;5.47;3.60;;;19.80;99.40;;;;;;5073896;28;20475;-65
2023/08/05 11:49:55;;;;;;;6.80;3.90;;;19.80;99.10;;;;;;5069233;28;20048;-64
2023/08/05 11:52:21;;;;;;;5.57;4.18;;;19.80;99.00;;;;;;5072244;28;20029;-66
2023/08/05 11:55:00;;;;;;;8.73;3.85;;;19.80;99.00;;;;;;5070475;28;20021;-65
2023/08/05 11:57:27;;;;;;;6.63;3.55;;;19.80;99.00;;;;;;5075039;28;20024;-68
2023/08/05 11:59:55;;;;;;;7.03;3.35;;;19.80;99.00;;;;;;5080550;28;20027;-65
2023/08/05 12:02:24;;;;;;;6.03;3.83;;;19.80;99.00;;;;;;5072127;28;20050;-67
2023/08/05 12:04:59;;;;;;;8.05;4.03;;;19.80;99.00;;;;;;5071168;28;20021;-65
2023/08/05 12:07:24;;;;;;;6.22;3.17;;;19.80;98.90;;;;;;5073835;28;20035;-65
2023/08/05 12:10:09;;;;;;;6.30;3.35;;;19.80;98.80;;;;;;5073277;28;20028;-66
2023/08/05 12:12:35;;;;;;;6.25;3.53;;;19.80;98.80;;;;;;5061625;28;20397;-65
2023/08/05 12:15:37;;;;;;;6.40;3.25;;;19.80;98.80;;;;;;5068445;28;20039;-67
2023/08/05 12:18:06;;;;;;;7.65;3.28;;;19.90;98.70;;;;;;4979428;28;20046;-64
2023/08/05 12:20:36;;;;;;;5.32;3.10;;;19.80;98.70;;;;;;5044399;28;20037;-65
2023/08/05 12:23:03;;;;;;;5.55;2.90;;;19.80;98.70;;;;;;5075639;28;20035;-63
2023/08/05 12:25:30;;;;;;;5.03;2.67;;;19.80;98.50;;;;;;5072807;28;20019;-64
2023/08/05 12:27:57;;;;;;;7.63;2.97;;;19.80;98.20;;;;;;5069369;28;20028;-64
2023/08/05 12:30:23;;;;;;;5.40;3.33;;;19.90;98.20;;;;;;5071113;28;20052;-65
2023/08/05 12:32:49;;;;;;;5.80;2.63;;;19.80;98.20;;;;;;5072770;28;20029;-63
2023/08/05 12:35:15;;;;;;;6.60;3.00;;;19.90;98.20;;;;;;5069569;28;20028;-66
2023/08/05 12:37:42;;;;;;;5.45;2.70;;;19.90;98.40;;;;;;5070317;28;20473;-64
2023/08/05 12:40:12;;;;;;;6.32;3.28;;;19.90;98.60;;;;;;5071106;28;20476;-63
2023/08/05 12:42:38;;;;;;;9.00;3.42;;;19.90;98.50;;;;;;5076361;28;20028;-66
2023/08/05 12:45:05;;;;;;;8.10;3.30;;;19.90;98.70;;;;;;5068128;28;20052;-66